createdAt,value
2022-09-28T00:01:41.016Z,10.37
2022-09-28T00:07:12.700Z,10.62
2022-09-28T00:12:44.382Z,10.36
2022-09-28T00:18:16.178Z,10.43
2022-09-28T00:23:47.913Z,10.57
2022-09-28T00:29:19.565Z,10.4
2022-09-28T00:34:51.356Z,10.46
2022-09-28T00:40:23.117Z,10.42
2022-09-28T00:45:54.886Z,10.47
2022-09-28T00:51:30.841Z,10.65
2022-09-28T00:57:02.582Z,10.57
2022-09-28T01:02:34.354Z,10.81
2022-09-28T01:08:06.085Z,10.74
2022-09-28T01:13:37.801Z,11.03
2022-09-28T01:19:09.518Z,10.85
2022-09-28T01:24:41.234Z,11.06
2022-09-28T01:30:12.952Z,10.91
2022-09-28T01:35:44.721Z,10.91
2022-09-28T01:41:16.376Z,10.96
2022-09-28T01:46:48.109Z,10.67
2022-09-28T01:52:24.221Z,10.75
2022-09-28T01:57:55.989Z,10.65
2022-09-28T02:03:27.662Z,10.75
2022-09-28T02:08:59.451Z,10.78
2022-09-28T02:14:31.154Z,10.9
2022-09-28T02:20:02.847Z,10.9
2022-09-28T02:25:34.576Z,10.91
2022-09-28T02:31:06.368Z,11.08
2022-09-28T02:36:38.065Z,11.13
2022-09-28T02:42:09.796Z,11.05
2022-09-28T02:47:41.524Z,10.87
2022-09-28T02:53:19.652Z,11.0
2022-09-28T02:58:51.393Z,10.97
2022-09-28T03:04:23.100Z,11.04
2022-09-28T03:09:54.768Z,10.92
2022-09-28T03:15:26.558Z,10.96
2022-09-28T03:20:58.261Z,11.06
2022-09-28T03:26:29.917Z,11.04
2022-09-28T03:32:01.671Z,11.05
2022-09-28T03:37:33.422Z,11.17
2022-09-28T03:43:05.177Z,10.99
2022-09-28T03:48:36.823Z,11.07
2022-09-28T03:54:12.982Z,11.03
2022-09-28T03:59:44.711Z,11.17
2022-09-28T04:05:16.478Z,11.08
2022-09-28T04:10:48.313Z,11.1
2022-09-28T04:16:19.938Z,11.02
2022-09-28T04:21:51.591Z,11.31
2022-09-28T04:27:23.309Z,11.36
2022-09-28T04:32:55.189Z,11.31
2022-09-28T04:38:41.753Z,11.21
2022-09-28T04:43:58.551Z,11.42
2022-09-28T04:49:30.210Z,11.05
2022-09-28T04:55:06.335Z,10.98
2022-09-28T05:00:38.101Z,11.38
2022-09-28T05:06:09.777Z,11.44
2022-09-28T05:11:41.509Z,11.58
2022-09-28T05:17:13.269Z,11.35
2022-09-28T05:22:45.028Z,11.33
2022-09-28T05:28:16.717Z,11.34
2022-09-28T05:33:48.352Z,11.39
2022-09-28T05:39:20.301Z,11.5
2022-09-28T05:44:52.185Z,11.43
2022-09-28T05:50:23.606Z,11.24
2022-09-28T05:55:59.666Z,11.19
2022-09-28T06:01:31.532Z,11.26
2022-09-28T06:07:03.242Z,11.36
2022-09-28T06:12:34.995Z,11.32
2022-09-28T06:18:06.661Z,11.41
2022-09-28T06:23:40.365Z,11.5
2022-09-28T06:29:10.630Z,11.31
2022-09-28T06:34:41.821Z,11.49
2022-09-28T06:40:13.548Z,11.54
2022-09-28T06:45:45.295Z,11.57
2022-09-28T06:51:17.013Z,11.54
2022-09-28T06:56:53.097Z,11.55
2022-09-28T07:02:24.866Z,11.54
2022-09-28T07:07:56.646Z,11.45
2022-09-28T07:13:48.318Z,11.34
2022-09-28T07:18:59.991Z,11.46
2022-09-28T07:24:31.731Z,11.35
2022-09-28T07:30:03.878Z,11.3
2022-09-28T07:35:35.229Z,11.44
2022-09-28T07:41:06.934Z,11.27
2022-09-28T07:46:38.674Z,11.07
2022-09-28T07:52:10.389Z,11.42
2022-09-28T07:57:48.546Z,11.54
2022-09-28T08:03:20.278Z,11.42
2022-09-28T08:08:52.050Z,11.2
2022-09-28T08:14:24.053Z,11.28
2022-09-28T08:19:55.614Z,11.23
2022-09-28T08:25:27.165Z,11.53
2022-09-28T08:30:59.004Z,11.43
2022-09-28T08:36:30.578Z,11.44
2022-09-28T08:42:02.341Z,11.41
2022-09-28T08:47:34.126Z,11.46
2022-09-28T08:53:05.873Z,11.35
2022-09-28T08:58:41.929Z,11.5
2022-09-28T09:04:13.691Z,11.8
2022-09-28T09:09:45.424Z,11.62
2022-09-28T09:15:17.110Z,11.74
2022-09-28T09:20:48.801Z,11.9
2022-09-28T09:26:23.417Z,12.05
2022-09-28T09:31:52.497Z,11.92
2022-09-28T09:37:24.028Z,12.11
2022-09-28T09:42:55.827Z,12.04
2022-09-28T09:48:27.447Z,12.13
2022-09-28T09:53:59.169Z,12.31
2022-09-28T09:59:37.291Z,12.35
2022-09-28T10:05:09.061Z,12.34
2022-09-28T10:10:40.753Z,12.31
2022-09-28T10:16:12.470Z,12.48
2022-09-28T10:21:44.191Z,12.45
2022-09-28T10:27:15.906Z,12.58
2022-09-28T10:32:47.603Z,12.55
2022-09-28T10:38:19.327Z,12.65
2022-09-28T10:43:52.019Z,12.78
2022-09-28T10:49:22.778Z,12.8
2022-09-28T10:54:54.482Z,12.61
2022-09-28T11:00:32.594Z,12.74
2022-09-28T11:06:04.514Z,12.98
2022-09-28T11:11:36.246Z,13.18
2022-09-28T11:17:07.921Z,13.13
2022-09-28T11:22:39.513Z,13.41
2022-09-28T11:28:11.282Z,13.65
2022-09-28T11:33:42.923Z,13.9
2022-09-28T11:39:14.697Z,14.11
2022-09-28T11:44:46.454Z,14.05
2022-09-28T11:50:21.439Z,13.96
2022-09-28T11:55:50.054Z,14.01
2022-09-28T12:01:25.974Z,14.29
2022-09-28T12:06:57.731Z,14.33
2022-09-28T12:12:29.342Z,14.36
2022-09-28T12:18:01.120Z,14.33
2022-09-28T12:23:32.835Z,14.5
2022-09-28T12:29:04.617Z,14.17
2022-09-28T12:34:36.301Z,14.62
2022-09-28T12:40:08.079Z,14.54
2022-09-28T12:45:53.378Z,14.15
2022-09-28T12:51:11.586Z,14.08
2022-09-28T12:56:43.177Z,14.32
2022-09-28T13:02:19.487Z,14.44
2022-09-28T13:07:50.976Z,14.45
2022-09-28T13:13:22.862Z,14.57
2022-09-28T13:18:54.494Z,14.71
2022-09-28T13:24:32.476Z,14.79
2022-09-28T13:29:59.969Z,14.9
2022-09-28T13:35:29.618Z,14.51
2022-09-28T13:41:01.350Z,14.58
2022-09-28T13:46:33.102Z,14.83
2022-09-28T13:52:05.007Z,14.8
2022-09-28T13:57:36.550Z,14.92
2022-09-28T14:03:12.625Z,14.66
2022-09-28T14:08:44.418Z,14.73
2022-09-28T14:14:16.293Z,14.62
2022-09-28T14:19:47.852Z,14.63
2022-09-28T14:25:19.625Z,14.61
2022-09-28T14:30:51.337Z,14.8
2022-09-28T14:36:22.978Z,14.79
2022-09-28T14:41:54.733Z,14.77
2022-09-28T14:47:26.482Z,14.57
2022-09-28T14:52:58.222Z,14.83
2022-09-28T14:58:30.642Z,14.82
2022-09-28T15:04:06.051Z,14.94
2022-09-28T15:09:37.793Z,14.63
2022-09-28T15:15:09.545Z,14.93
2022-09-28T15:20:41.249Z,14.84
2022-09-28T15:26:12.948Z,14.72
2022-09-28T15:31:44.729Z,14.69
2022-09-28T15:37:16.450Z,14.73
2022-09-28T15:42:48.134Z,14.55
2022-09-28T15:48:19.853Z,14.41
2022-09-28T15:53:51.610Z,14.39
2022-09-28T15:59:23.253Z,14.32
2022-09-28T16:04:59.465Z,14.46
2022-09-28T16:10:31.242Z,14.43
2022-09-28T16:16:02.983Z,14.55
2022-09-28T16:21:34.630Z,14.55
2022-09-28T16:27:06.334Z,14.37
2022-09-28T16:32:38.057Z,14.45
2022-09-28T16:38:09.793Z,14.46
2022-09-28T16:43:41.538Z,14.39
2022-09-28T16:49:13.258Z,14.36
2022-09-28T16:54:45.022Z,14.25
2022-09-28T17:00:16.719Z,14.27
2022-09-28T17:05:54.833Z,14.19
2022-09-28T17:11:26.535Z,14.02
2022-09-28T17:17:07.980Z,13.77
2022-09-28T17:22:30.095Z,13.4
2022-09-28T17:28:01.738Z,13.38
2022-09-28T17:33:33.462Z,13.26
2022-09-28T17:39:05.199Z,13.13
2022-09-28T17:44:36.977Z,13.05
2022-09-28T17:50:08.652Z,12.98
2022-09-28T17:55:40.458Z,12.86
2022-09-28T18:01:12.117Z,12.76
2022-09-28T18:06:48.298Z,12.68
2022-09-28T18:12:19.917Z,12.65
2022-09-28T18:17:51.750Z,12.59
2022-09-28T18:23:23.372Z,12.52
2022-09-28T18:28:55.131Z,12.41
2022-09-28T18:34:26.949Z,12.31
2022-09-28T18:39:58.584Z,12.23
2022-09-28T18:45:30.282Z,12.21
2022-09-28T18:51:02.067Z,12.12
2022-09-28T18:56:33.777Z,11.96
2022-09-28T19:02:05.562Z,12.02
2022-09-28T19:07:41.595Z,11.97
2022-09-28T19:13:13.523Z,11.92
2022-09-28T19:18:45.028Z,11.79
2022-09-28T19:24:16.791Z,11.71
2022-09-28T19:29:48.567Z,11.57
2022-09-28T19:35:20.244Z,11.64
2022-09-28T19:40:52.027Z,11.63
2022-09-28T19:46:23.723Z,11.4
2022-09-28T19:52:12.541Z,11.5
2022-09-28T19:57:27.309Z,11.59
2022-09-28T20:02:58.960Z,11.52
2022-09-28T20:08:35.045Z,11.4
2022-09-28T20:14:06.775Z,11.38
2022-09-28T20:19:38.471Z,11.3
2022-09-28T20:25:10.222Z,11.21
2022-09-28T20:30:41.925Z,11.24
2022-09-28T20:36:13.591Z,11.1
2022-09-28T20:41:45.318Z,11.2
2022-09-28T20:47:17.166Z,11.23
2022-09-28T20:52:48.794Z,11.25
2022-09-28T20:58:20.470Z,11.17
2022-09-28T21:03:52.294Z,11.04
2022-09-28T21:09:30.397Z,10.95
2022-09-28T21:15:05.635Z,10.85
2022-09-28T21:20:33.850Z,10.94
2022-09-28T21:26:05.518Z,11.0
2022-09-28T21:31:37.323Z,10.93
2022-09-28T21:37:08.967Z,10.96
2022-09-28T21:42:40.713Z,10.81
2022-09-28T21:48:12.502Z,10.62
2022-09-28T21:53:44.137Z,10.68
2022-09-28T21:59:15.906Z,10.91
2022-09-28T22:04:47.594Z,10.95
2022-09-28T22:10:23.764Z,11.0
2022-09-28T22:15:55.536Z,10.91
2022-09-28T22:21:27.301Z,10.93
2022-09-28T22:26:58.935Z,10.77
2022-09-28T22:32:30.559Z,10.48
2022-09-28T22:38:02.407Z,10.42
2022-09-28T22:43:34.497Z,10.67
2022-09-28T22:49:05.782Z,10.76
2022-09-28T22:54:37.529Z,10.75
2022-09-28T23:00:09.241Z,10.54
2022-09-28T23:05:41.039Z,10.48
2022-09-28T23:11:17.081Z,10.67
2022-09-28T23:16:49.274Z,10.51
2022-09-28T23:22:20.617Z,10.46
2022-09-28T23:27:52.233Z,10.44
2022-09-28T23:33:24.010Z,10.56
2022-09-28T23:38:55.709Z,10.6
2022-09-28T23:44:27.393Z,10.61
2022-09-28T23:49:59.169Z,10.55
2022-09-28T23:55:30.854Z,10.64
